Time;durP1;ratioP1;P1;durP2;ratioP2;P2;SDS_P1;SDS_P2;PMS_P1;PMS_P2;Temp;Humidity;BMP_temperature;BMP_pressure;BME280_temperature;BME280_humidity;BME280_pressure;Samples;Min_cycle;Max_cycle;Signal;HPM_P1;HPM_P2
2021/05/31 00:00:40;;;;;;;2.42;2.10;;;16.30;61.10;;;;;;5096034;28;20146;-67
2021/05/31 00:03:05;;;;;;;2.47;1.95;;;16.20;61.30;;;;;;5095810;28;20028;-66
2021/05/31 00:05:31;;;;;;;2.25;1.90;;;16.20;61.70;;;;;;5095833;28;20016;-66
2021/05/31 00:07:57;;;;;;;2.55;1.80;;;16.10;61.30;;;;;;5095812;28;20030;-66
2021/05/31 00:10:26;;;;;;;3.17;2.10;;;16.10;62.40;;;;;;5095829;28;20498;-66
2021/05/31 00:12:52;;;;;;;2.15;1.95;;;16.00;62.60;;;;;;5095675;28;20020;-67
2021/05/31 00:15:19;;;;;;;6.20;1.95;;;16.00;62.60;;;;;;5095614;28;20388;-66
2021/05/31 00:17:44;;;;;;;3.88;2.10;;;15.90;62.80;;;;;;5095505;28;20490;-67
2021/05/31 00:20:12;;;;;;;3.40;1.92;;;15.90;62.30;;;;;;5095749;28;20024;-66
2021/05/31 00:22:38;;;;;;;3.53;1.95;;;15.80;62.60;;;;;;5095397;28;20381;-67
2021/05/31 00:25:06;;;;;;;3.17;2.25;;;15.70;63.40;;;;;;5095055;28;20023;-67
2021/05/31 00:27:31;;;;;;;2.78;2.28;;;15.70;64.30;;;;;;5095011;28;20376;-67
2021/05/31 00:29:57;;;;;;;2.50;2.03;;;15.70;64.90;;;;;;5095194;28;20040;-67
2021/05/31 00:32:23;;;;;;;4.93;2.05;;;15.60;64.80;;;;;;5095362;28;20020;-67
2021/05/31 00:34:49;;;;;;;5.35;2.05;;;15.60;64.70;;;;;;5095418;28;20521;-67
2021/05/31 00:37:16;;;;;;;5.07;2.28;;;15.50;64.70;;;;;;5095341;28;20032;-67
2021/05/31 00:39:41;;;;;;;3.38;2.20;;;15.50;65.20;;;;;;5095056;28;20028;-67
2021/05/31 00:42:07;;;;;;;5.85;2.33;;;15.50;65.10;;;;;;5094999;28;20540;-66
2021/05/31 00:44:33;;;;;;;4.43;2.00;;;15.50;65.40;;;;;;5095159;28;20541;-67
2021/05/31 00:46:59;;;;;;;3.42;2.30;;;15.50;65.40;;;;;;5094869;28;20019;-66
2021/05/31 00:49:28;;;;;;;3.85;1.77;;;15.50;65.90;;;;;;5094979;28;20114;-67
2021/05/31 00:51:54;;;;;;;3.58;2.17;;;15.50;65.70;;;;;;5094957;28;20012;-67
2021/05/31 00:54:21;;;;;;;3.83;1.85;;;15.50;65.20;;;;;;5094866;28;20103;-67
2021/05/31 00:56:47;;;;;;;3.58;2.15;;;15.40;64.90;;;;;;5094851;28;20032;-67
2021/05/31 00:59:14;;;;;;;4.80;2.15;;;15.50;65.80;;;;;;5091979;28;20084;-67
2021/05/31 01:01:40;;;;;;;5.47;2.10;;;15.40;65.70;;;;;;5073651;28;20035;-67
2021/05/31 01:04:06;;;;;;;4.53;2.30;;;15.40;65.50;;;;;;5092394;28;20032;-67
2021/05/31 01:06:39;;;;;;;2.90;2.00;;;15.40;65.70;;;;;;5094405;28;20105;-67
2021/05/31 01:09:10;;;;;;;4.85;2.00;;;15.40;65.50;;;;;;5094261;28;20035;-67
2021/05/31 01:12:10;;;;;;;7.75;2.30;;;15.40;65.40;;;;;;5094326;28;20631;-67
2021/05/31 01:14:38;;;;;;;3.97;1.95;;;15.40;65.20;;;;;;5094158;28;20036;-66
2021/05/31 01:17:13;;;;;;;3.08;2.13;;;15.40;64.80;;;;;;5093705;28;20468;-66
2021/05/31 01:19:51;;;;;;;3.67;2.42;;;15.40;65.30;;;;;;5075980;28;20496;-67
2021/05/31 01:22:22;;;;;;;2.25;2.05;;;15.30;65.50;;;;;;5094069;28;20052;-67
2021/05/31 01:24:54;;;;;;;3.40;2.13;;;15.30;65.20;;;;;;5094374;28;20016;-68
2021/05/31 01:27:20;;;;;;;;;;;15.30;65.30;;;;;;5094523;28;20020;-67
2021/05/31 01:30:10;;;;;;;4.10;2.08;;;15.30;65.30;;;;;;5093722;28;19962;-67
2021/05/31 01:32:35;;;;;;;2.50;2.20;;;15.30;65.10;;;;;;5093818;28;20502;-67
2021/05/31 01:35:05;;;;;;;5.78;2.08;;;15.30;65.20;;;;;;5093618;28;20024;-67
2021/05/31 01:37:33;;;;;;;4.13;2.25;;;15.20;64.90;;;;;;5093800;28;20032;-67
2021/05/31 01:40:04;;;;;;;7.28;2.20;;;15.20;64.80;;;;;;5093685;28;20395;-67
2021/05/31 01:42:30;;;;;;;4.57;2.20;;;15.20;64.50;;;;;;5093818;28;20031;-67
2021/05/31 01:44:57;;;;;;;4.10;2.40;;;15.20;64.70;;;;;;5093570;28;20024;-67
2021/05/31 01:47:23;;;;;;;3.95;2.30;;;15.20;65.40;;;;;;5093591;28;20017;-67
2021/05/31 01:49:50;;;;;;;3.42;2.38;;;15.20;64.30;;;;;;5094024;28;20578;-67
2021/05/31 01:52:17;;;;;;;4.82;2.53;;;15.10;64.80;;;;;;5093544;28;20541;-67
2021/05/31 01:54:43;;;;;;;5.65;2.28;;;15.00;65.70;;;;;;5093431;28;20027;-66
2021/05/31 01:57:10;;;;;;;6.30;3.58;;;15.00;65.60;;;;;;5093196;28;20025;-66
2021/05/31 01:59:36;;;;;;;10.65;2.65;;;14.90;65.40;;;;;;5093226;28;20028;-67
2021/05/31 02:02:03;;;;;;;5.43;2.58;;;14.90;65.50;;;;;;5093601;28;20016;-66
2021/05/31 02:04:29;;;;;;;4.05;2.58;;;14.90;66.00;;;;;;5093522;28;20028;-67
2021/05/31 02:06:55;;;;;;;4.40;2.75;;;14.90;65.90;;;;;;5093372;28;20027;-66
2021/05/31 02:09:22;;;;;;;3.55;2.58;;;14.80;66.30;;;;;;5075028;28;20074;-66
2021/05/31 02:11:56;;;;;;;4.28;2.53;;;14.80;66.50;;;;;;5093720;28;20042;-66
2021/05/31 02:14:29;;;;;;;6.18;2.78;;;14.70;66.50;;;;;;5093439;28;20376;-67
2021/05/31 02:17:04;;;;;;;4.78;2.70;;;14.70;66.90;;;;;;5093162;28;20111;-66
2021/05/31 02:19:32;;;;;;;5.18;2.78;;;14.70;66.40;;;;;;5093275;28;20016;-67
2021/05/31 02:21:58;;;;;;;4.15;2.35;;;14.70;66.90;;;;;;5093155;28;20028;-67
2021/05/31 02:24:24;;;;;;;5.07;2.67;;;14.70;67.00;;;;;;5093402;28;20030;-66
2021/05/31 02:26:52;;;;;;;5.97;2.65;;;14.70;67.00;;;;;;5092872;28;20099;-67
2021/05/31 02:29:18;;;;;;;3.97;2.55;;;14.70;67.20;;;;;;5092814;28;20043;-67
2021/05/31 02:31:44;;;;;;;3.38;2.25;;;14.70;66.60;;;;;;5093093;28;20028;-67
2021/05/31 02:34:09;;;;;;;4.30;2.45;;;14.70;66.70;;;;;;5093231;28;20421;-67
2021/05/31 02:36:35;;;;;;;7.65;2.53;;;14.60;66.90;;;;;;5093102;28;20028;-66
2021/05/31 02:39:01;;;;;;;5.22;2.63;;;14.60;66.90;;;;;;5093157;28;20020;-66
2021/05/31 02:41:27;;;;;;;3.17;2.58;;;14.60;67.00;;;;;;5092949;28;20024;-66
2021/05/31 02:43:53;;;;;;;4.13;2.45;;;14.60;67.10;;;;;;5093044;28;20379;-67
2021/05/31 02:46:19;;;;;;;7.18;2.78;;;14.60;67.30;;;;;;5093107;28;20411;-67
2021/05/31 02:48:45;;;;;;;3.53;2.83;;;14.60;66.80;;;;;;5093053;28;20081;-67
2021/05/31 02:51:10;;;;;;;4.20;2.42;;;14.60;67.00;;;;;;5093000;28;20028;-66
2021/05/31 02:53:36;;;;;;;4.18;2.45;;;14.60;67.10;;;;;;5092935;28;20024;-66
2021/05/31 02:56:02;;;;;;;4.13;2.28;;;14.60;66.90;;;;;;5092773;28;20081;-66
2021/05/31 02:58:29;;;;;;;4.97;2.78;;;14.60;66.90;;;;;;5093050;28;20040;-66
2021/05/31 03:00:55;;;;;;;4.22;2.65;;;14.60;66.70;;;;;;5092743;28;20387;-66
2021/05/31 03:03:20;;;;;;;3.83;2.72;;;14.50;66.80;;;;;;5092946;28;20095;-66
2021/05/31 03:05:46;;;;;;;3.05;2.45;;;14.50;67.00;;;;;;5093104;28;20059;-66
2021/05/31 03:08:12;;;;;;;4.20;2.75;;;14.50;66.90;;;;;;5092506;28;20039;-66
2021/05/31 03:10:38;;;;;;;3.33;2.60;;;14.50;66.80;;;;;;5092910;28;20024;-66
2021/05/31 03:13:04;;;;;;;3.65;2.40;;;14.50;68.20;;;;;;5092912;28;20077;-66
2021/05/31 03:15:30;;;;;;;5.53;2.40;;;14.40;67.40;;;;;;5092536;28;20032;-66
2021/05/31 03:17:56;;;;;;;3.40;3.05;;;14.50;67.30;;;;;;5092542;28;20060;-66
2021/05/31 03:20:25;;;;;;;4.55;2.95;;;14.40;67.00;;;;;;5092748;28;20476;-66
2021/05/31 03:22:51;;;;;;;6.25;3.25;;;14.50;67.00;;;;;;5092912;28;20099;-66
2021/05/31 03:25:17;;;;;;;3.08;2.75;;;14.40;67.00;;;;;;5092426;28;20024;-66
2021/05/31 03:27:43;;;;;;;3.72;2.67;;;14.40;66.90;;;;;;5092387;28;20027;-66
2021/05/31 03:30:11;;;;;;;6.45;2.50;;;14.50;66.10;;;;;;5092392;28;20381;-66
2021/05/31 03:32:37;;;;;;;5.43;3.40;;;14.30;66.00;;;;;;5092467;28;20054;-67
2021/05/31 03:35:04;;;;;;;4.40;2.85;;;14.40;90.10;;;;;;5092418;28;20469;-66
2021/05/31 03:37:31;;;;;;;5.40;2.85;;;14.20;66.60;;;;;;5092444;28;20032;-66
2021/05/31 03:39:56;;;;;;;4.68;3.00;;;14.10;66.60;;;;;;5095164;28;20043;-66
2021/05/31 03:42:22;;;;;;;4.85;3.10;;;14.20;68.30;;;;;;5096457;28;20028;-66
2021/05/31 03:44:48;;;;;;;6.20;2.70;;;14.10;67.90;;;;;;5096051;28;20027;-66
2021/05/31 03:47:13;;;;;;;6.18;2.92;;;14.10;69.20;;;;;;5096273;28;20027;-66
2021/05/31 03:49:39;;;;;;;8.23;2.60;;;14.10;68.90;;;;;;5096240;28;20066;-66
2021/05/31 03:52:05;;;;;;;3.10;2.55;;;14.10;70.50;;;;;;5096257;28;20523;-66
2021/05/31 03:54:31;;;;;;;3.80;2.90;;;14.00;66.80;;;;;;5096030;28;20016;-66
2021/05/31 03:56:56;;;;;;;4.00;2.53;;;14.00;66.20;;;;;;5096127;28;20123;-66
2021/05/31 03:59:23;;;;;;;3.58;2.83;;;14.00;66.50;;;;;;5095962;28;20024;-66
2021/05/31 04:01:51;;;;;;;4.28;2.83;;;14.00;66.80;;;;;;5095854;28;20016;-66
2021/05/31 04:04:16;;;;;;;7.30;2.50;;;14.00;66.90;;;;;;5096006;28;20020;-66
2021/05/31 04:11:53;;;;;;;5.07;2.70;;;13.90;67.10;;;;;;5096101;28;20062;-67
2021/05/31 04:14:20;;;;;;;4.65;2.63;;;13.90;67.10;;;;;;5095744;28;20020;-66
2021/05/31 04:16:48;;;;;;;7.53;2.72;;;13.90;67.30;;;;;;5095407;28;20048;-67
2021/05/31 04:19:15;;;;;;;4.72;2.78;;;13.90;67.80;;;;;;5095512;28;20395;-66
2021/05/31 04:21:43;;;;;;;3.70;3.03;;;13.90;68.00;;;;;;5095644;28;20016;-66
2021/05/31 04:24:11;;;;;;;4.05;2.63;;;14.00;68.00;;;;;;5095890;28;20422;-66
2021/05/31 04:26:37;;;;;;;6.45;3.10;;;14.00;68.40;;;;;;5095457;28;20027;-66
2021/05/31 04:29:08;;;;;;;7.50;3.00;;;14.00;68.40;;;;;;5095471;28;20048;-66
2021/05/31 04:31:35;;;;;;;5.72;3.47;;;14.00;68.70;;;;;;5095129;28;20028;-66
2021/05/31 04:34:02;;;;;;;4.53;2.83;;;14.00;68.60;;;;;;5095280;28;20024;-68
2021/05/31 04:36:28;;;;;;;4.15;3.47;;;14.00;68.70;;;;;;5077181;28;20020;-67
2021/05/31 04:38:54;;;;;;;7.32;3.25;;;14.10;69.30;;;;;;5095136;28;20400;-67
2021/05/31 04:41:20;;;;;;;9.52;3.42;;;14.10;69.20;;;;;;5095006;28;20012;-68
2021/05/31 04:43:46;;;;;;;8.75;3.50;;;14.10;69.00;;;;;;5095039;28;20017;-67
2021/05/31 04:46:11;;;;;;;7.63;2.92;;;14.20;69.10;;;;;;5095291;28;20032;-68
2021/05/31 04:48:37;;;;;;;6.03;3.03;;;14.20;69.20;;;;;;5095061;28;20099;-67
2021/05/31 04:51:03;;;;;;;6.72;3.42;;;14.20;69.30;;;;;;5093993;28;20028;-68
2021/05/31 04:53:30;;;;;;;5.65;2.90;;;14.20;69.30;;;;;;5094997;28;20020;-67
2021/05/31 04:55:57;;;;;;;6.07;2.78;;;14.20;69.00;;;;;;5094639;28;20062;-67
2021/05/31 04:58:24;;;;;;;8.05;2.67;;;14.30;67.70;;;;;;5094560;28;20110;-67
2021/05/31 05:00:51;;;;;;;3.83;2.63;;;14.30;66.40;;;;;;5094838;28;20031;-67
2021/05/31 05:03:20;;;;;;;4.45;2.97;;;14.30;66.60;;;;;;5094313;28;20032;-67
2021/05/31 05:05:46;;;;;;;5.22;2.60;;;14.40;66.50;;;;;;5094679;28;20391;-67
2021/05/31 05:08:13;;;;;;;4.78;2.75;;;14.40;65.70;;;;;;5094582;28;20024;-67
2021/05/31 05:10:39;;;;;;;4.95;2.50;;;14.50;64.70;;;;;;5094623;28;20024;-67
2021/05/31 05:13:05;;;;;;;3.65;2.40;;;14.50;64.00;;;;;;5094423;28;20115;-68
2021/05/31 05:15:31;;;;;;;4.10;2.50;;;14.60;64.00;;;;;;5094549;28;20051;-67
2021/05/31 05:17:57;;;;;;;5.30;3.03;;;14.60;64.50;;;;;;5094455;28;20093;-68
2021/05/31 05:20:27;;;;;;;3.92;2.50;;;14.70;68.10;;;;;;5094470;28;20020;-67
2021/05/31 05:22:54;;;;;;;3.55;2.50;;;14.80;68.20;;;;;;5094335;28;20028;-67
2021/05/31 05:25:21;;;;;;;5.15;2.28;;;14.80;70.30;;;;;;5094573;28;20020;-68
2021/05/31 05:27:49;;;;;;;4.75;2.38;;;14.80;69.30;;;;;;5094412;28;20103;-68
2021/05/31 05:30:20;;;;;;;4.07;2.50;;;14.90;70.90;;;;;;5094180;28;20071;-68
2021/05/31 05:32:48;;;;;;;3.45;2.20;;;14.90;71.80;;;;;;5093906;28;20027;-68
2021/05/31 05:48:05;;;;;;;4.40;3.03;;;14.90;63.10;;;;;;5094058;28;20429;-68
2021/05/31 05:50:31;;;;;;;6.45;2.38;;;15.00;63.80;;;;;;5093718;28;20024;-68
2021/05/31 05:52:56;;;;;;;6.55;3.00;;;15.00;63.80;;;;;;5092902;28;20396;-68
2021/05/31 05:55:23;;;;;;;6.18;2.67;;;15.10;63.50;;;;;;5092408;28;20020;-68
2021/05/31 05:57:49;;;;;;;5.20;2.63;;;15.10;63.30;;;;;;5093513;28;20034;-71
2021/05/31 06:00:18;;;;;;;3.30;2.50;;;15.10;62.90;;;;;;5075272;28;20020;-71
2021/05/31 06:02:44;;;;;;;3.88;2.47;;;15.20;62.40;;;;;;5093049;28;20039;-70
2021/05/31 06:05:11;;;;;;;3.63;2.55;;;15.20;61.50;;;;;;5093697;28;20024;-72
2021/05/31 06:07:36;;;;;;;5.30;2.40;;;15.30;61.50;;;;;;5093370;28;20102;-71
2021/05/31 06:10:04;;;;;;;10.13;3.03;;;15.30;61.50;;;;;;5093563;28;20107;-71
2021/05/31 06:12:29;;;;;;;6.35;2.63;;;15.40;62.10;;;;;;5093191;28;20028;-71
2021/05/31 06:14:55;;;;;;;7.05;2.60;;;15.40;62.10;;;;;;5092726;28;20030;-71
2021/05/31 06:17:21;;;;;;;5.32;2.72;;;15.50;62.10;;;;;;5093246;28;20036;-72
2021/05/31 06:19:47;;;;;;;5.28;2.20;;;15.50;61.30;;;;;;5093251;28;20073;-72
2021/05/31 06:22:12;;;;;;;9.98;2.40;;;15.60;60.70;;;;;;5093582;28;20031;-71
2021/05/31 06:24:38;;;;;;;5.15;2.67;;;15.60;60.30;;;;;;5092856;28;20459;-71
2021/05/31 06:27:05;;;;;;;5.63;2.47;;;15.60;59.00;;;;;;5091736;28;20430;-71
2021/05/31 06:29:30;;;;;;;6.03;2.90;;;15.60;56.30;;;;;;5091788;28;20552;-70
2021/05/31 06:31:56;;;;;;;11.23;2.92;;;15.60;57.40;;;;;;5092060;28;20107;-70
2021/05/31 06:34:21;;;;;;;8.85;2.50;;;15.60;56.90;;;;;;5091420;28;20039;-71
2021/05/31 06:36:49;;;;;;;4.25;2.20;;;15.70;57.00;;;;;;5091318;28;20077;-71
2021/05/31 06:39:15;;;;;;;6.13;2.60;;;15.70;57.20;;;;;;5092245;28;20041;-71
2021/05/31 06:41:41;;;;;;;7.80;2.30;;;15.70;57.40;;;;;;5092688;28;20028;-71
2021/05/31 06:44:08;;;;;;;5.47;2.55;;;15.80;56.40;;;;;;5092885;28;20443;-72
2021/05/31 06:46:33;;;;;;;8.35;2.60;;;15.90;56.90;;;;;;5091652;28;20035;-71
2021/05/31 06:49:00;;;;;;;11.15;2.97;;;15.90;57.00;;;;;;5091332;28;20465;-71
2021/05/31 06:51:26;;;;;;;9.10;2.63;;;15.90;56.10;;;;;;5092569;28;20039;-71
2021/05/31 06:53:51;;;;;;;15.30;3.78;;;16.00;55.70;;;;;;5092230;28;20028;-68
2021/05/31 06:56:19;;;;;;;6.88;2.85;;;16.00;56.50;;;;;;5091937;28;20028;-71
2021/05/31 06:58:45;;;;;;;9.32;3.15;;;16.10;56.70;;;;;;5090714;28;20398;-69
2021/05/31 07:01:10;;;;;;;5.75;2.50;;;16.10;56.80;;;;;;5090704;28;20026;-71
2021/05/31 07:03:37;;;;;;;9.23;2.70;;;16.20;57.50;;;;;;5092286;28;20066;-71
2021/05/31 07:06:04;;;;;;;6.43;2.70;;;16.20;56.80;;;;;;5092461;28;20395;-71
2021/05/31 07:08:31;;;;;;;6.82;2.30;;;;;;;;;;5092066;28;20046;-71
2021/05/31 07:10:58;;;;;;;2.53;2.00;;;16.40;55.10;;;;;;5092286;28;20024;-68
2021/05/31 07:13:25;;;;;;;3.83;1.95;;;16.40;55.90;;;;;;5092640;28;20039;-67
2021/05/31 07:15:52;;;;;;;2.25;2.00;;;16.50;55.50;;;;;;5096008;28;20400;-67
2021/05/31 07:18:19;;;;;;;3.22;1.92;;;16.50;55.40;;;;;;5096936;28;20063;-67
2021/05/31 07:20:48;;;;;;;5.78;2.67;;;16.60;52.50;;;;;;5096802;28;20063;-68
2021/05/31 07:23:14;;;;;;;5.45;2.00;;;16.60;51.20;;;;;;5094912;28;20447;-69
2021/05/31 07:25:39;;;;;;;3.63;2.00;;;16.60;52.10;;;;;;5096687;28;20024;-68
2021/05/31 07:28:05;;;;;;;4.30;2.08;;;16.70;50.80;;;;;;5095545;28;20027;-69
2021/05/31 07:30:32;;;;;;;4.65;2.10;;;16.70;51.10;;;;;;5095488;28;20043;-68
2021/05/31 07:32:58;;;;;;;2.70;2.05;;;16.70;52.20;;;;;;5095802;28;20384;-69
2021/05/31 07:35:24;;;;;;;3.40;2.00;;;16.80;50.70;;;;;;5094987;28;20024;-67
2021/05/31 07:37:49;;;;;;;5.13;1.88;;;16.80;50.40;;;;;;5096017;28;20036;-67
2021/05/31 07:40:16;;;;;;;4.65;1.55;;;16.80;50.80;;;;;;5096303;28;20085;-67
2021/05/31 07:42:43;;;;;;;5.90;1.65;;;16.90;51.10;;;;;;5096214;28;20128;-67
2021/05/31 07:45:12;;;;;;;4.18;1.77;;;16.90;51.80;;;;;;5096128;28;20115;-67
2021/05/31 07:47:38;;;;;;;2.60;1.77;;;17.00;51.80;;;;;;5096388;28;20052;-68
2021/05/31 07:50:05;;;;;;;2.70;1.88;;;17.10;50.70;;;;;;5096362;28;20035;-67
2021/05/31 07:52:31;;;;;;;4.22;1.60;;;17.20;50.90;;;;;;5096400;28;20457;-67
2021/05/31 07:54:57;;;;;;;2.63;1.70;;;17.20;48.20;;;;;;5096318;28;20031;-67
2021/05/31 07:57:24;;;;;;;3.08;1.63;;;17.30;46.10;;;;;;5096164;28;20032;-67
2021/05/31 07:59:52;;;;;;;2.83;1.63;;;17.30;46.80;;;;;;5096106;28;20468;-67
2021/05/31 08:02:18;;;;;;;2.38;1.70;;;17.30;46.40;;;;;;5096255;28;20028;-67
2021/05/31 08:04:44;;;;;;;1.98;1.63;;;17.40;47.60;;;;;;5096301;28;20060;-67
2021/05/31 08:07:11;;;;;;;7.15;2.55;;;17.40;47.80;;;;;;5096232;28;20027;-67
2021/05/31 08:09:37;;;;;;;3.50;1.92;;;17.50;48.20;;;;;;5096028;28;20029;-67
2021/05/31 08:12:04;;;;;;;4.25;2.00;;;17.50;48.10;;;;;;5096017;28;20024;-67
2021/05/31 08:14:30;;;;;;;4.18;1.73;;;17.60;49.10;;;;;;5096061;28;20020;-67
2021/05/31 08:16:55;;;;;;;2.67;1.80;;;17.60;47.40;;;;;;5096262;28;20023;-67
2021/05/31 08:19:21;;;;;;;3.97;1.65;;;17.70;48.20;;;;;;5095830;28;20081;-67
2021/05/31 08:21:48;;;;;;;3.97;2.15;;;17.80;49.00;;;;;;5095786;28;20031;-67
2021/05/31 08:24:15;;;;;;;4.75;1.75;;;17.80;48.60;;;;;;5096114;28;20101;-67
2021/05/31 08:26:41;;;;;;;3.75;1.90;;;17.90;48.60;;;;;;5095702;28;20028;-67
2021/05/31 08:29:08;;;;;;;3.20;1.77;;;18.00;49.00;;;;;;5111633;22;20051;-65
2021/05/31 08:31:34;;;;;;;2.38;1.63;;;18.00;47.20;;;;;;5095589;28;20036;-66
2021/05/31 08:33:59;;;;;;;3.53;1.95;;;18.10;46.40;;;;;;5095358;28;20051;-65
2021/05/31 08:36:25;;;;;;;11.70;2.20;;;18.20;47.60;;;;;;5095402;28;20538;-65
2021/05/31 08:38:55;;;;;;;2.40;1.80;;;18.30;47.60;;;;;;5095311;28;20035;-65
2021/05/31 08:41:22;;;;;;;5.97;1.55;;;18.30;47.80;;;;;;5095082;28;20023;-65
2021/05/31 08:43:48;;;;;;;2.55;1.40;;;18.40;47.70;;;;;;5095227;28;20027;-65
2021/05/31 08:46:14;;;;;;;3.28;1.80;;;18.50;45.50;;;;;;5095304;28;20016;-65
2021/05/31 08:48:40;;;;;;;2.88;1.70;;;18.50;45.20;;;;;;5095052;28;20492;-65
2021/05/31 08:51:05;;;;;;;2.78;1.70;;;18.60;46.30;;;;;;5095184;28;20036;-65
2021/05/31 08:53:32;;;;;;;2.58;1.50;;;18.60;46.30;;;;;;5095074;28;20402;-65
2021/05/31 08:55:58;;;;;;;6.00;2.03;;;18.60;45.10;;;;;;5095180;28;20150;-66
2021/05/31 08:58:24;;;;;;;4.70;1.60;;;18.70;46.20;;;;;;5095012;28;20036;-65
2021/05/31 09:00:50;;;;;;;2.63;1.60;;;18.70;43.70;;;;;;5094815;28;20373;-65
2021/05/31 09:03:18;;;;;;;3.15;1.67;;;18.80;44.40;;;;;;5094822;28;20055;-66
2021/05/31 09:05:45;;;;;;;4.20;1.67;;;18.80;45.50;;;;;;5094854;28;20034;-65
2021/05/31 09:08:19;;;;;;;4.47;1.70;;;18.90;45.40;;;;;;5094815;28;20472;-65
2021/05/31 09:11:06;;;;;;;3.90;1.83;;;19.00;45.60;;;;;;5094828;28;20531;-65
2021/05/31 09:13:38;;;;;;;2.83;1.70;;;19.00;45.80;;;;;;5094739;28;20024;-66
2021/05/31 09:16:13;;;;;;;4.13;2.43;;;19.10;44.20;;;;;;5094900;28;20019;-66
2021/05/31 09:18:50;;;;;;;3.78;1.70;;;19.10;45.80;;;;;;5094602;28;20039;-66
2021/05/31 09:21:22;;;;;;;4.65;1.70;;;19.20;43.50;;;;;;5094885;28;20020;-66
2021/05/31 09:24:07;;;;;;;1.88;1.60;;;19.30;45.10;;;;;;5094656;28;20052;-68
2021/05/31 09:26:44;;;;;;;6.55;2.42;;;19.40;46.60;;;;;;5094624;28;20028;-67
2021/05/31 09:29:10;;;;;;;2.13;1.40;;;19.50;44.70;;;;;;5094143;28;20048;-67
2021/05/31 09:31:36;;;;;;;2.85;1.58;;;19.60;45.00;;;;;;5094478;28;20099;-67
2021/05/31 09:34:04;;;;;;;4.10;1.80;;;19.70;45.50;;;;;;5094310;28;20039;-67
2021/05/31 09:36:31;;;;;;;5.10;1.75;;;19.80;43.50;;;;;;5094030;28;20032;-67
2021/05/31 09:38:58;;;;;;;4.90;1.90;;;19.80;44.40;;;;;;5094216;28;20032;-67
2021/05/31 09:41:32;;;;;;;2.58;1.70;;;19.80;43.40;;;;;;5094281;28;20056;-67
2021/05/31 09:44:06;;;;;;;1.88;1.50;;;19.80;44.90;;;;;;5094082;28;20107;-67
2021/05/31 09:46:38;;;;;;;2.40;1.58;;;19.90;45.70;;;;;;5094299;28;20030;-67
2021/05/31 09:49:30;;;;;;;3.25;1.63;;;20.00;44.70;;;;;;5094056;28;20107;-67
2021/05/31 09:52:07;;;;;;;3.17;1.92;;;20.00;44.40;;;;;;5090450;28;20101;-67
2021/05/31 09:54:37;;;;;;;6.10;1.73;;;20.10;41.70;;;;;;5094342;28;20553;-67
2021/05/31 09:57:18;;;;;;;4.07;1.67;;;20.00;42.90;;;;;;5093679;28;20028;-67
2021/05/31 10:00:30;;;;;;;4.97;1.52;;;20.10;44.10;;;;;;5094173;28;20107;-67
2021/05/31 10:03:08;;;;;;;2.20;1.70;;;20.10;44.10;;;;;;5093845;28;20024;-67
2021/05/31 10:08:40;;;;;;;2.40;1.60;;;20.30;40.50;;;;;;5093730;28;20024;-67
2021/05/31 10:11:04;;;;;;;4.07;1.55;;;20.30;41.10;;;;;;5093703;28;20081;-67
2021/05/31 10:13:30;;;;;;;5.28;1.88;;;20.40;43.10;;;;;;5093811;28;20020;-67
2021/05/31 10:16:00;;;;;;;4.80;2.03;;;20.40;43.50;;;;;;5093850;28;20077;-67
2021/05/31 10:18:28;;;;;;;3.30;1.90;;;20.60;43.70;;;;;;5093370;28;20055;-67
2021/05/31 10:20:54;;;;;;;4.07;1.77;;;20.70;41.50;;;;;;5093767;28;20023;-67
2021/05/31 10:23:20;;;;;;;3.28;1.83;;;20.80;43.40;;;;;;5093736;28;20028;-67
2021/05/31 10:25:55;;;;;;;2.67;1.75;;;20.90;45.50;;;;;;5093425;28;20103;-67
2021/05/31 10:28:23;;;;;;;2.45;1.80;;;21.00;45.10;;;;;;5093473;28;20360;-67
2021/05/31 10:30:58;;;;;;;4.85;1.80;;;21.00;45.00;;;;;;5093512;28;20119;-67
2021/05/31 10:33:27;;;;;;;3.08;1.80;;;21.10;40.90;;;;;;5093301;28;20027;-67
2021/05/31 10:35:55;;;;;;;6.30;2.42;;;21.10;42.20;;;;;;5093442;28;20032;-67
2021/05/31 10:38:23;;;;;;;4.57;1.98;;;21.10;42.20;;;;;;5093279;28;20404;-67
2021/05/31 10:40:54;;;;;;;2.58;1.73;;;21.10;43.60;;;;;;5093424;28;20027;-67
2021/05/31 10:43:25;;;;;;;6.95;2.15;;;21.10;45.60;;;;;;5093577;28;20480;-67
2021/05/31 10:46:04;;;;;;;4.05;2.10;;;21.20;45.30;;;;;;5093183;28;20039;-67
2021/05/31 10:48:44;;;;;;;4.18;2.30;;;21.30;45.00;;;;;;5093827;28;20365;-67
2021/05/31 10:51:25;;;;;;;2.00;1.80;;;21.30;44.90;;;;;;5097578;28;20012;-67
2021/05/31 10:53:52;;;;;;;3.53;2.10;;;21.40;42.80;;;;;;5097363;28;20495;-67
2021/05/31 10:56:18;;;;;;;3.88;1.63;;;21.40;43.90;;;;;;5097372;28;20085;-67
2021/05/31 10:58:51;;;;;;;3.22;1.92;;;21.50;42.00;;;;;;5097232;28;20040;-67
2021/05/31 11:01:22;;;;;;;3.33;1.90;;;21.50;42.70;;;;;;5097377;28;20439;-67
2021/05/31 11:03:59;;;;;;;3.95;1.92;;;21.50;45.20;;;;;;5097118;28;20096;-67
2021/05/31 11:06:28;;;;;;;3.53;1.63;;;21.60;45.10;;;;;;5097401;28;20460;-67
2021/05/31 11:09:04;;;;;;;4.03;1.58;;;21.70;44.50;;;;;;5097094;28;20028;-65
2021/05/31 11:11:33;;;;;;;3.72;2.17;;;21.80;43.10;;;;;;5097103;28;20032;-71
2021/05/31 11:14:00;;;;;;;6.07;1.83;;;21.90;42.70;;;;;;5097023;28;20017;-67
2021/05/31 11:16:26;;;;;;;3.38;2.00;;;21.90;42.50;;;;;;5097306;28;20488;-65
2021/05/31 11:19:00;;;;;;;2.67;2.00;;;22.00;43.90;;;;;;5096971;28;20043;-67
2021/05/31 11:21:36;;;;;;;2.63;1.80;;;22.10;44.80;;;;;;5097072;28;20035;-67
2021/05/31 11:24:08;;;;;;;2.70;1.67;;;22.10;45.70;;;;;;5097417;28;20506;-67
2021/05/31 11:26:41;;;;;;;3.47;1.90;;;22.20;45.20;;;;;;5096982;28;20052;-67
2021/05/31 11:29:09;;;;;;;5.57;2.20;;;22.30;45.50;;;;;;5096596;28;20048;-67
2021/05/31 11:31:37;;;;;;;4.22;1.75;;;22.40;43.70;;;;;;5096765;28;20031;-68
2021/05/31 11:34:04;;;;;;;2.10;1.75;;;22.50;43.80;;;;;;5096434;28;20020;-67
2021/05/31 11:36:37;;;;;;;3.33;1.70;;;22.50;44.60;;;;;;5096679;28;20024;-67
2021/05/31 11:39:13;;;;;;;3.40;2.20;;;22.40;41.70;;;;;;5096752;28;20036;-67
2021/05/31 11:41:43;;;;;;;3.17;1.90;;;22.40;42.50;;;;;;5096309;28;20028;-71
2021/05/31 11:44:12;;;;;;;3.53;1.90;;;22.30;43.00;;;;;;5096529;28;20020;-67
2021/05/31 11:46:45;;;;;;;3.72;2.10;;;22.30;44.20;;;;;;5096521;28;20035;-67
2021/05/31 11:49:11;;;;;;;4.40;2.10;;;22.40;42.90;;;;;;5096376;28;20090;-67
2021/05/31 11:51:37;;;;;;;4.18;1.83;;;22.30;43.00;;;;;;5096540;28;20028;-68
2021/05/31 11:54:05;;;;;;;4.82;2.03;;;22.40;42.40;;;;;;5096293;28;20020;-67
2021/05/31 11:56:32;;;;;;;3.88;1.90;;;22.50;44.00;;;;;;5096368;28;20433;-67
2021/05/31 11:58:58;;;;;;;2.58;1.70;;;22.50;44.00;;;;;;5096021;28;20043;-67
2021/05/31 12:01:23;;;;;;;2.22;1.70;;;22.60;42.60;;;;;;5095822;28;20024;-67
2021/05/31 12:03:49;;;;;;;2.35;2.00;;;22.70;43.70;;;;;;5096351;28;20028;-67
2021/05/31 12:06:15;;;;;;;4.38;2.22;;;22.80;43.10;;;;;;5096233;28;20056;-67
2021/05/31 12:08:40;;;;;;;2.00;1.70;;;22.80;44.00;;;;;;5096091;28;20418;-67
2021/05/31 12:11:06;;;;;;;4.47;1.85;;;22.90;40.00;;;;;;5096040;28;20059;-67
2021/05/31 12:13:34;;;;;;;5.80;2.00;;;23.00;41.90;;;;;;5095775;28;20027;-67
2021/05/31 12:16:11;;;;;;;2.55;1.83;;;23.00;43.20;;;;;;5096034;28;20016;-67
2021/05/31 12:18:36;;;;;;;3.65;1.83;;;23.10;42.50;;;;;;5095651;28;20048;-67
2021/05/31 12:21:02;;;;;;;4.82;2.20;;;23.20;42.50;;;;;;5096083;28;20019;-67
2021/05/31 12:23:28;;;;;;;2.45;1.90;;;23.20;42.40;;;;;;5095723;28;20028;-67
2021/05/31 12:26:00;;;;;;;5.85;2.08;;;23.20;42.20;;;;;;5095532;28;20024;-67
2021/05/31 12:28:33;;;;;;;4.45;2.17;;;23.10;41.70;;;;;;5095443;28;20028;-67
2021/05/31 12:31:00;;;;;;;2.78;1.95;;;23.10;40.20;;;;;;5095610;28;20012;-67
2021/05/31 12:33:26;;;;;;;5.57;1.90;;;23.00;41.80;;;;;;5095447;28;20028;-67
2021/05/31 12:35:51;;;;;;;4.25;2.42;;;22.90;42.40;;;;;;5095619;28;20073;-67
2021/05/31 12:38:19;;;;;;;4.38;2.17;;;22.90;41.30;;;;;;5095398;28;20392;-67
2021/05/31 12:40:46;;;;;;;3.53;2.00;;;22.80;41.60;;;;;;5095614;28;20074;-67
2021/05/31 12:43:12;;;;;;;3.20;1.95;;;22.70;42.00;;;;;;5095522;28;20114;-67
2021/05/31 12:45:46;;;;;;;4.22;1.95;;;22.70;44.60;;;;;;5095207;28;20021;-67
2021/05/31 12:48:20;;;;;;;2.97;2.30;;;22.80;43.50;;;;;;5095399;28;20020;-68
2021/05/31 12:50:57;;;;;;;3.17;2.15;;;22.90;44.20;;;;;;5095438;28;20020;-67
2021/05/31 12:53:27;;;;;;;4.18;2.00;;;22.90;41.20;;;;;;5095219;28;20028;-67
2021/05/31 12:56:00;;;;;;;3.55;2.05;;;23.10;42.30;;;;;;5095057;28;20484;-67
2021/05/31 12:58:26;;;;;;;4.65;2.20;;;23.10;41.90;;;;;;5095001;28;20039;-67
2021/05/31 13:00:53;;;;;;;2.15;1.92;;;23.20;42.70;;;;;;5095092;28;20016;-67
2021/05/31 13:03:20;;;;;;;2.35;1.90;;;23.30;41.80;;;;;;5094957;28;20020;-67
2021/05/31 13:05:49;;;;;;;7.50;1.90;;;23.40;43.60;;;;;;5094822;28;20077;-67
2021/05/31 13:08:15;;;;;;;4.00;2.15;;;23.50;42.00;;;;;;5094738;28;20028;-67
2021/05/31 13:10:46;;;;;;;6.80;2.22;;;23.50;41.30;;;;;;5094484;28;20012;-67
2021/05/31 13:13:14;;;;;;;3.83;1.95;;;23.60;42.50;;;;;;5094586;28;20020;-67